Terminal Aerodrome Forecast
Issued by NWS

Home | Current Version | Previous Version | Text Only | Print | Product List | Glossary Off
Versions: 1 2 3 4 5 6 7 8 9 10 11 12 13 14 15 16

000
FTUS44 KTSA 241100
TAFMLC
TAF
KMLC 241120Z 2412/2512 00000KT P6SM SCT070
     FM241500 18008KT P6SM SCT250
     FM250000 18003KT P6SM SKC=

USA.gov is the U.S. government's official web portal to all federal, state and local government web resources and services.